sensor_id;sensor_type;location;lat;lon;timestamp;pressure;altitude;pressure_sealevel;temperature;humidity
19777;BME280;10047;42.490;26.012;2023-04-21T00:01:12;98999.28;;;12.42;100.00
19777;BME280;10047;42.490;26.012;2023-04-21T00:03:38;99049.44;;;12.74;100.00
19777;BME280;10047;42.490;26.012;2023-04-21T00:06:04;99006.00;;;12.28;100.00
19777;BME280;10047;42.490;26.012;2023-04-21T00:08:34;99034.59;;;12.50;100.00
19777;BME280;10047;42.490;26.012;2023-04-21T00:11:05;99105.59;;;12.57;100.00
19777;BME280;10047;42.490;26.012;2023-04-21T00:13:32;99146.88;;;12.64;100.00
19777;BME280;10047;42.490;26.012;2023-04-21T00:15:57;99111.97;;;12.49;100.00
19777;BME280;10047;42.490;26.012;2023-04-21T00:18:24;99163.16;;;12.78;100.00
19777;BME280;10047;42.490;26.012;2023-04-21T00:20:49;99155.84;;;12.55;100.00
19777;BME280;10047;42.490;26.012;2023-04-21T00:23:15;99177.28;;;12.51;100.00
19777;BME280;10047;42.490;26.012;2023-04-21T00:25:41;99177.41;;;12.48;100.00
19777;BME280;10047;42.490;26.012;2023-04-21T00:28:06;99179.75;;;12.36;100.00
19777;BME280;10047;42.490;26.012;2023-04-21T00:30:31;99200.44;;;12.30;100.00
19777;BME280;10047;42.490;26.012;2023-04-21T00:32:57;99221.53;;;12.67;100.00
19777;BME280;10047;42.490;26.012;2023-04-21T00:35:22;99173.25;;;12.11;100.00
19777;BME280;10047;42.490;26.012;2023-04-21T00:37:48;99443.34;;;12.11;100.00
19777;BME280;10047;42.490;26.012;2023-04-21T00:40:14;99508.41;;;12.39;100.00
19777;BME280;10047;42.490;26.012;2023-04-21T00:42:40;99506.28;;;12.48;100.00
19777;BME280;10047;42.490;26.012;2023-04-21T00:45:05;99518.69;;;12.56;100.00
19777;BME280;10047;42.490;26.012;2023-04-21T00:47:32;99479.03;;;12.30;100.00
19777;BME280;10047;42.490;26.012;2023-04-21T00:49:58;99466.34;;;12.10;100.00
19777;BME280;10047;42.490;26.012;2023-04-21T00:52:24;99481.31;;;12.36;100.00
19777;BME280;10047;42.490;26.012;2023-04-21T00:54:51;99406.66;;;11.95;100.00
19777;BME280;10047;42.490;26.012;2023-04-21T00:57:17;99515.41;;;12.54;100.00
19777;BME280;10047;42.490;26.012;2023-04-21T00:59:43;99448.94;;;11.99;100.00
19777;BME280;10047;42.490;26.012;2023-04-21T01:02:08;99502.72;;;12.32;100.00
19777;BME280;10047;42.490;26.012;2023-04-21T01:04:34;99500.69;;;12.40;100.00
19777;BME280;10047;42.490;26.012;2023-04-21T01:07:03;99451.13;;;12.27;100.00
19777;BME280;10047;42.490;26.012;2023-04-21T01:09:29;99433.25;;;12.08;100.00
19777;BME280;10047;42.490;26.012;2023-04-21T01:14:29;99479.63;;;12.16;100.00
19777;BME280;10047;42.490;26.012;2023-04-21T01:16:55;99451.75;;;11.93;100.00
19777;BME280;10047;42.490;26.012;2023-04-21T01:19:22;99452.78;;;11.89;100.00
19777;BME280;10047;42.490;26.012;2023-04-21T01:21:47;99473.84;;;11.93;100.00
19777;BME280;10047;42.490;26.012;2023-04-21T01:24:13;99462.25;;;11.86;100.00
19777;BME280;10047;42.490;26.012;2023-04-21T01:26:38;99497.53;;;11.95;100.00
19777;BME280;10047;42.490;26.012;2023-04-21T01:29:04;99529.38;;;12.25;100.00
19777;BME280;10047;42.490;26.012;2023-04-21T01:31:30;99481.63;;;11.90;100.00
19777;BME280;10047;42.490;26.012;2023-04-21T01:33:55;99554.19;;;12.42;100.00
19777;BME280;10047;42.490;26.012;2023-04-21T01:36:21;99573.91;;;12.37;100.00
19777;BME280;10047;42.490;26.012;2023-04-21T01:38:46;99511.28;;;12.11;100.00
19777;BME280;10047;42.490;26.012;2023-04-21T01:41:11;99576.59;;;12.34;100.00
19777;BME280;10047;42.490;26.012;2023-04-21T01:43:37;99485.53;;;11.77;100.00
19777;BME280;10047;42.490;26.012;2023-04-21T01:46:04;99607.38;;;12.49;100.00
19777;BME280;10047;42.490;26.012;2023-04-21T01:48:29;99539.38;;;11.89;100.00
19777;BME280;10047;42.490;26.012;2023-04-21T01:50:55;99606.88;;;12.41;100.00
19777;BME280;10047;42.490;26.012;2023-04-21T01:53:20;99557.09;;;12.12;100.00
19777;BME280;10047;42.490;26.012;2023-04-21T01:55:46;99612.84;;;12.40;100.00
19777;BME280;10047;42.490;26.012;2023-04-21T01:58:11;99510.41;;;11.92;100.00
19777;BME280;10047;42.490;26.012;2023-04-21T02:00:37;99639.59;;;12.52;100.00
19777;BME280;10047;42.490;26.012;2023-04-21T02:03:02;99622.25;;;12.40;100.00
19777;BME280;10047;42.490;26.012;2023-04-21T02:05:28;99626.38;;;12.42;100.00
19777;BME280;10047;42.490;26.012;2023-04-21T02:07:53;99612.16;;;12.37;100.00
19777;BME280;10047;42.490;26.012;2023-04-21T02:10:19;99602.84;;;12.15;100.00
19777;BME280;10047;42.490;26.012;2023-04-21T02:12:45;99578.69;;;12.04;100.00
19777;BME280;10047;42.490;26.012;2023-04-21T02:15:11;99592.66;;;12.15;100.00
19777;BME280;10047;42.490;26.012;2023-04-21T02:17:36;99562.00;;;11.75;100.00
19777;BME280;10047;42.490;26.012;2023-04-21T02:20:02;99521.72;;;11.63;100.00
19777;BME280;10047;42.490;26.012;2023-04-21T02:22:28;99629.81;;;11.99;100.00
19777;BME280;10047;42.490;26.012;2023-04-21T02:24:53;99631.75;;;12.14;100.00
19777;BME280;10047;42.490;26.012;2023-04-21T02:27:19;99572.63;;;11.63;100.00
19777;BME280;10047;42.490;26.012;2023-04-21T02:29:44;99633.00;;;12.04;100.00
19777;BME280;10047;42.490;26.012;2023-04-21T02:32:10;99761.63;;;11.94;100.00
19777;BME280;10047;42.490;26.012;2023-04-21T02:34:35;99774.97;;;12.01;100.00
19777;BME280;10047;42.490;26.012;2023-04-21T02:37:00;99791.25;;;11.97;100.00
19777;BME280;10047;42.490;26.012;2023-04-21T02:39:26;99687.00;;;11.23;100.00
19777;BME280;10047;42.490;26.012;2023-04-21T02:41:51;99813.97;;;11.80;100.00
19777;BME280;10047;42.490;26.012;2023-04-21T02:44:17;99798.22;;;11.69;100.00
19777;BME280;10047;42.490;26.012;2023-04-21T02:46:42;99840.59;;;11.94;100.00
19777;BME280;10047;42.490;26.012;2023-04-21T02:49:08;99793.19;;;11.67;100.00
19777;BME280;10047;42.490;26.012;2023-04-21T02:51:34;99766.47;;;11.54;100.00
19777;BME280;10047;42.490;26.012;2023-04-21T02:54:00;99855.72;;;11.99;100.00
19777;BME280;10047;42.490;26.012;2023-04-21T02:56:25;99831.78;;;11.80;100.00
19777;BME280;10047;42.490;26.012;2023-04-21T02:58:51;100568.50;;;12.25;100.00
19777;BME280;10047;42.490;26.012;2023-04-21T03:01:17;100571.00;;;11.92;100.00
19777;BME280;10047;42.490;26.012;2023-04-21T03:03:44;100577.06;;;11.88;100.00
19777;BME280;10047;42.490;26.012;2023-04-21T03:06:10;100542.00;;;11.61;100.00
19777;BME280;10047;42.490;26.012;2023-04-21T03:08:35;100617.91;;;12.20;100.00
19777;BME280;10047;42.490;26.012;2023-04-21T03:11:00;100548.59;;;11.71;100.00
19777;BME280;10047;42.490;26.012;2023-04-21T03:13:26;100533.78;;;11.50;100.00
19777;BME280;10047;42.490;26.012;2023-04-21T03:15:51;100589.66;;;11.56;100.00
19777;BME280;10047;42.490;26.012;2023-04-21T03:18:17;100839.25;;;12.00;100.00
19777;BME280;10047;42.490;26.012;2023-04-21T03:20:43;100812.66;;;11.72;100.00
19777;BME280;10047;42.490;26.012;2023-04-21T03:23:08;100895.41;;;11.94;100.00
19777;BME280;10047;42.490;26.012;2023-04-21T03:25:34;100902.25;;;11.92;100.00
19777;BME280;10047;42.490;26.012;2023-04-21T03:27:59;100921.94;;;11.86;100.00
19777;BME280;10047;42.490;26.012;2023-04-21T03:30:25;100948.72;;;12.06;100.00
19777;BME280;10047;42.490;26.012;2023-04-21T03:32:51;100914.56;;;11.69;100.00
19777;BME280;10047;42.490;26.012;2023-04-21T03:35:17;101012.63;;;11.96;100.00
19777;BME280;10047;42.490;26.012;2023-04-21T03:37:42;100909.53;;;11.14;100.00
19777;BME280;10047;42.490;26.012;2023-04-21T03:40:08;101049.31;;;11.87;100.00
19777;BME280;10047;42.490;26.012;2023-04-21T03:42:34;100996.72;;;11.25;100.00
19777;BME280;10047;42.490;26.012;2023-04-21T03:45:03;101071.00;;;11.55;100.00
19777;BME280;10047;42.490;26.012;2023-04-21T03:47:29;101068.56;;;11.49;100.00
19777;BME280;10047;42.490;26.012;2023-04-21T03:49:55;101110.63;;;11.75;100.00
19777;BME280;10047;42.490;26.012;2023-04-21T03:52:20;101070.53;;;11.27;100.00
19777;BME280;10047;42.490;26.012;2023-04-21T03:54:46;101075.72;;;11.19;100.00
19777;BME280;10047;42.490;26.012;2023-04-21T03:57:11;101155.94;;;11.49;100.00
19777;BME280;10047;42.490;26.012;2023-04-21T03:59:37;101168.75;;;11.43;100.00
19777;BME280;10047;42.490;26.012;2023-04-21T04:02:03;101187.34;;;11.53;100.00
19777;BME280;10047;42.490;26.012;2023-04-21T04:04:28;101159.88;;;11.06;100.00
19777;BME280;10047;42.490;26.012;2023-04-21T04:06:54;101165.91;;;10.99;100.00
19777;BME280;10047;42.490;26.012;2023-04-21T04:09:21;101232.56;;;11.29;100.00
19777;BME280;10047;42.490;26.012;2023-04-21T04:11:47;101262.91;;;11.49;100.00
19777;BME280;10047;42.490;26.012;2023-04-21T04:14:12;101266.47;;;11.33;100.00
19777;BME280;10047;42.490;26.012;2023-04-21T04:16:37;101350.97;;;11.76;100.00
19777;BME280;10047;42.490;26.012;2023-04-21T04:19:03;101349.38;;;11.61;100.00
19777;BME280;10047;42.490;26.012;2023-04-21T04:21:28;101354.59;;;11.52;100.00
19777;BME280;10047;42.490;26.012;2023-04-21T04:23:55;101416.34;;;11.78;100.00
19777;BME280;10047;42.490;26.012;2023-04-21T04:26:20;101389.28;;;11.68;100.00
19777;BME280;10047;42.490;26.012;2023-04-21T04:28:50;101407.06;;;11.71;100.00
19777;BME280;10047;42.490;26.012;2023-04-21T04:31:16;101386.75;;;11.59;100.00
19777;BME280;10047;42.490;26.012;2023-04-21T04:33:42;101449.44;;;11.81;100.00
19777;BME280;10047;42.490;26.012;2023-04-21T04:36:08;101477.28;;;11.99;100.00
19777;BME280;10047;42.490;26.012;2023-04-21T04:38:34;101474.94;;;11.77;100.00
19777;BME280;10047;42.490;26.012;2023-04-21T04:41:01;101495.13;;;11.99;100.00
19777;BME280;10047;42.490;26.012;2023-04-21T04:43:27;101492.69;;;11.87;100.00
19777;BME280;10047;42.490;26.012;2023-04-21T04:45:52;101543.50;;;12.87;100.00
19777;BME280;10047;42.490;26.012;2023-04-21T04:48:18;101567.78;;;13.20;100.00
19777;BME280;10047;42.490;26.012;2023-04-21T04:50:43;101485.78;;;12.00;100.00
19777;BME280;10047;42.490;26.012;2023-04-21T04:53:09;101468.91;;;11.87;100.00
19777;BME280;10047;42.490;26.012;2023-04-21T04:55:35;101408.88;;;11.56;100.00
19777;BME280;10047;42.490;26.012;2023-04-21T04:58:01;101478.72;;;12.28;100.00
19777;BME280;10047;42.490;26.012;2023-04-21T05:00:27;101473.78;;;12.09;100.00
19777;BME280;10047;42.490;26.012;2023-04-21T05:02:53;101467.81;;;12.13;100.00
19777;BME280;10047;42.490;26.012;2023-04-21T05:05:19;101441.44;;;12.16;100.00
19777;BME280;10047;42.490;26.012;2023-04-21T05:07:46;101444.53;;;12.41;100.00
19777;BME280;10047;42.490;26.012;2023-04-21T05:10:12;101464.00;;;12.49;100.00
19777;BME280;10047;42.490;26.012;2023-04-21T05:12:37;101476.53;;;12.66;100.00
19777;BME280;10047;42.490;26.012;2023-04-21T05:15:04;101459.31;;;12.83;100.00
19777;BME280;10047;42.490;26.012;2023-04-21T05:17:31;101392.41;;;12.60;100.00
19777;BME280;10047;42.490;26.012;2023-04-21T05:19:57;101354.34;;;12.48;100.00
19777;BME280;10047;42.490;26.012;2023-04-21T05:22:22;101293.16;;;12.45;100.00
19777;BME280;10047;42.490;26.012;2023-04-21T05:24:48;101299.13;;;12.42;100.00
19777;BME280;10047;42.490;26.012;2023-04-21T05:27:17;101268.69;;;12.33;100.00
19777;BME280;10047;42.490;26.012;2023-04-21T05:29:42;101320.69;;;12.81;100.00
19777;BME280;10047;42.490;26.012;2023-04-21T05:32:07;101242.50;;;12.75;100.00
19777;BME280;10047;42.490;26.012;2023-04-21T05:34:33;101231.50;;;12.73;100.00
19777;BME280;10047;42.490;26.012;2023-04-21T05:36:59;101232.50;;;12.62;100.00
19777;BME280;10047;42.490;26.012;2023-04-21T05:39:26;101193.41;;;12.61;100.00
19777;BME280;10047;42.490;26.012;2023-04-21T05:41:52;101192.41;;;12.71;100.00
19777;BME280;10047;42.490;26.012;2023-04-21T05:44:17;101213.06;;;13.07;100.00
19777;BME280;10047;42.490;26.012;2023-04-21T05:46:43;101137.00;;;12.76;100.00
19777;BME280;10047;42.490;26.012;2023-04-21T05:49:08;101177.94;;;13.19;100.00
19777;BME280;10047;42.490;26.012;2023-04-21T05:51:33;101164.03;;;13.32;100.00
19777;BME280;10047;42.490;26.012;2023-04-21T05:53:59;101095.09;;;12.88;100.00
19777;BME280;10047;42.490;26.012;2023-04-21T05:56:24;101037.09;;;12.53;100.00
19777;BME280;10047;42.490;26.012;2023-04-21T05:58:50;101038.59;;;12.62;100.00
19777;BME280;10047;42.490;26.012;2023-04-21T06:01:15;101061.41;;;13.15;100.00
19777;BME280;10047;42.490;26.012;2023-04-21T06:03:41;101098.34;;;13.39;100.00
19777;BME280;10047;42.490;26.012;2023-04-21T06:06:06;101079.41;;;13.49;100.00
19777;BME280;10047;42.490;26.012;2023-04-21T06:08:33;101081.31;;;13.76;100.00
19777;BME280;10047;42.490;26.012;2023-04-21T06:10:59;101056.00;;;14.01;100.00
19777;BME280;10047;42.490;26.012;2023-04-21T06:13:24;101016.50;;;13.78;100.00
19777;BME280;10047;42.490;26.012;2023-04-21T06:15:52;100934.78;;;14.08;100.00
19777;BME280;10047;42.490;26.012;2023-04-21T06:18:17;100931.38;;;14.39;100.00
19777;BME280;10047;42.490;26.012;2023-04-21T06:20:51;100838.50;;;13.76;100.00
19777;BME280;10047;42.490;26.012;2023-04-21T06:23:17;100788.06;;;13.82;100.00
19777;BME280;10047;42.490;26.012;2023-04-21T06:25:43;100742.34;;;14.56;100.00
19777;BME280;10047;42.490;26.012;2023-04-21T06:28:08;100765.19;;;15.13;100.00
19777;BME280;10047;42.490;26.012;2023-04-21T06:30:34;100650.19;;;14.83;100.00
19777;BME280;10047;42.490;26.012;2023-04-21T06:32:59;100629.97;;;14.75;100.00
19777;BME280;10047;42.490;26.012;2023-04-21T06:35:25;100578.88;;;15.18;100.00
19777;BME280;10047;42.490;26.012;2023-04-21T06:37:50;100512.91;;;15.68;100.00
19777;BME280;10047;42.490;26.012;2023-04-21T06:40:15;100439.00;;;14.93;100.00
19777;BME280;10047;42.490;26.012;2023-04-21T06:42:41;100376.34;;;14.58;100.00
19777;BME280;10047;42.490;26.012;2023-04-21T06:45:07;100311.41;;;13.94;100.00
19777;BME280;10047;42.490;26.012;2023-04-21T06:47:32;100315.44;;;14.67;100.00
19777;BME280;10047;42.490;26.012;2023-04-21T06:49:58;100284.63;;;14.91;100.00
19777;BME280;10047;42.490;26.012;2023-04-21T06:52:23;100191.09;;;14.42;100.00
19777;BME280;10047;42.490;26.012;2023-04-21T06:54:48;100223.81;;;14.75;100.00
19777;BME280;10047;42.490;26.012;2023-04-21T06:57:14;100205.19;;;14.30;100.00
19777;BME280;10047;42.490;26.012;2023-04-21T06:59:41;100177.44;;;13.76;100.00
19777;BME280;10047;42.490;26.012;2023-04-21T07:02:06;100174.91;;;14.41;100.00
19777;BME280;10047;42.490;26.012;2023-04-21T07:04:32;100184.13;;;14.65;100.00
19777;BME280;10047;42.490;26.012;2023-04-21T07:06:57;100155.16;;;14.65;100.00
19777;BME280;10047;42.490;26.012;2023-04-21T07:09:23;100081.47;;;14.11;100.00
19777;BME280;10047;42.490;26.012;2023-04-21T07:11:48;100094.13;;;14.56;100.00
19777;BME280;10047;42.490;26.012;2023-04-21T07:14:13;100123.69;;;14.21;100.00
19777;BME280;10047;42.490;26.012;2023-04-21T07:16:39;100077.13;;;14.35;100.00
19777;BME280;10047;42.490;26.012;2023-04-21T07:19:04;100067.28;;;14.24;100.00
19777;BME280;10047;42.490;26.012;2023-04-21T07:21:30;100116.50;;;14.91;100.00
19777;BME280;10047;42.490;26.012;2023-04-21T07:23:56;100081.00;;;13.81;100.00
19777;BME280;10047;42.490;26.012;2023-04-21T07:26:23;100038.63;;;13.76;100.00
19777;BME280;10047;42.490;26.012;2023-04-21T07:28:48;100039.94;;;14.26;100.00
19777;BME280;10047;42.490;26.012;2023-04-21T07:31:14;100098.25;;;14.78;100.00
19777;BME280;10047;42.490;26.012;2023-04-21T07:33:40;100004.44;;;14.59;100.00
19777;BME280;10047;42.490;26.012;2023-04-21T07:36:05;100093.31;;;15.13;100.00
19777;BME280;10047;42.490;26.012;2023-04-21T07:38:31;100028.28;;;14.80;100.00
19777;BME280;10047;42.490;26.012;2023-04-21T07:40:56;99988.44;;;14.54;100.00
19777;BME280;10047;42.490;26.012;2023-04-21T07:43:22;100085.22;;;15.22;100.00
19777;BME280;10047;42.490;26.012;2023-04-21T07:45:47;100075.56;;;14.71;100.00
19777;BME280;10047;42.490;26.012;2023-04-21T07:48:13;100060.31;;;14.68;100.00
19777;BME280;10047;42.490;26.012;2023-04-21T07:50:38;100021.41;;;14.61;100.00
19777;BME280;10047;42.490;26.012;2023-04-21T07:53:04;100077.66;;;15.75;100.00
19777;BME280;10047;42.490;26.012;2023-04-21T07:55:29;99964.75;;;15.23;100.00
19777;BME280;10047;42.490;26.012;2023-04-21T07:57:55;100043.84;;;15.12;100.00
19777;BME280;10047;42.490;26.012;2023-04-21T08:00:20;100036.69;;;15.56;100.00
19777;BME280;10047;42.490;26.012;2023-04-21T08:02:46;100049.69;;;15.70;100.00
19777;BME280;10047;42.490;26.012;2023-04-21T08:05:11;99965.84;;;14.82;100.00
19777;BME280;10047;42.490;26.012;2023-04-21T08:07:37;100012.91;;;15.88;100.00
19777;BME280;10047;42.490;26.012;2023-04-21T08:10:04;100001.25;;;15.10;100.00
19777;BME280;10047;42.490;26.012;2023-04-21T08:12:30;100019.91;;;15.49;100.00
19777;BME280;10047;42.490;26.012;2023-04-21T08:14:55;99963.88;;;15.94;100.00
19777;BME280;10047;42.490;26.012;2023-04-21T08:17:21;99990.72;;;15.87;100.00
19777;BME280;10047;42.490;26.012;2023-04-21T08:19:46;99998.50;;;16.53;100.00
19777;BME280;10047;42.490;26.012;2023-04-21T08:22:12;100003.44;;;16.88;100.00
19777;BME280;10047;42.490;26.012;2023-04-21T08:24:37;99989.03;;;17.78;100.00
19777;BME280;10047;42.490;26.012;2023-04-21T08:27:02;99933.75;;;18.13;100.00
19777;BME280;10047;42.490;26.012;2023-04-21T08:29:28;99916.50;;;18.57;100.00
19777;BME280;10047;42.490;26.012;2023-04-21T08:31:53;99922.94;;;18.22;100.00
19777;BME280;10047;42.490;26.012;2023-04-21T08:34:19;99912.44;;;18.53;100.00
19777;BME280;10047;42.490;26.012;2023-04-21T08:36:44;99808.75;;;16.95;100.00
19777;BME280;10047;42.490;26.012;2023-04-21T08:39:12;99851.03;;;16.89;100.00
19777;BME280;10047;42.490;26.012;2023-04-21T08:41:38;99814.13;;;17.92;100.00
19777;BME280;10047;42.490;26.012;2023-04-21T08:44:10;99804.97;;;18.29;100.00
19777;BME280;10047;42.490;26.012;2023-04-21T08:46:39;99856.03;;;18.63;100.00
19777;BME280;10047;42.490;26.012;2023-04-21T08:49:08;99790.59;;;18.79;100.00
19777;BME280;10047;42.490;26.012;2023-04-21T08:51:33;99779.84;;;18.46;100.00
19777;BME280;10047;42.490;26.012;2023-04-21T08:53:59;99829.69;;;18.45;100.00
19777;BME280;10047;42.490;26.012;2023-04-21T08:56:25;99758.41;;;17.50;100.00
19777;BME280;10047;42.490;26.012;2023-04-21T08:58:51;99737.22;;;18.01;100.00
19777;BME280;10047;42.490;26.012;2023-04-21T09:01:16;99776.50;;;18.58;100.00
19777;BME280;10047;42.490;26.012;2023-04-21T09:03:42;99812.31;;;18.35;100.00
19777;BME280;10047;42.490;26.012;2023-04-21T09:06:08;99815.25;;;17.88;100.00
19777;BME280;10047;42.490;26.012;2023-04-21T09:08:37;99753.31;;;18.58;100.00
19777;BME280;10047;42.490;26.012;2023-04-21T09:11:04;99823.75;;;19.11;100.00
19777;BME280;10047;42.490;26.012;2023-04-21T09:13:36;99804.25;;;18.27;100.00
19777;BME280;10047;42.490;26.012;2023-04-21T09:16:03;99763.88;;;18.80;100.00
19777;BME280;10047;42.490;26.012;2023-04-21T09:18:31;99813.28;;;18.99;100.00
19777;BME280;10047;42.490;26.012;2023-04-21T09:21:14;99814.97;;;20.26;100.00
19777;BME280;10047;42.490;26.012;2023-04-21T09:23:50;99807.78;;;19.94;100.00
19777;BME280;10047;42.490;26.012;2023-04-21T09:26:18;99800.75;;;19.96;100.00
19777;BME280;10047;42.490;26.012;2023-04-21T09:28:47;99799.97;;;20.31;100.00
19777;BME280;10047;42.490;26.012;2023-04-21T09:31:19;99784.91;;;20.25;100.00
19777;BME280;10047;42.490;26.012;2023-04-21T09:33:50;99815.53;;;20.90;100.00
19777;BME280;10047;42.490;26.012;2023-04-21T09:36:21;99717.81;;;19.76;100.00
19777;BME280;10047;42.490;26.012;2023-04-21T09:38:55;99793.00;;;20.68;100.00
19777;BME280;10047;42.490;26.012;2023-04-21T09:41:22;99729.50;;;21.44;100.00
19777;BME280;10047;42.490;26.012;2023-04-21T09:43:47;99772.41;;;20.90;100.00
19777;BME280;10047;42.490;26.012;2023-04-21T09:46:16;99782.56;;;19.48;100.00
19777;BME280;10047;42.490;26.012;2023-04-21T09:48:43;99745.31;;;19.27;100.00
19777;BME280;10047;42.490;26.012;2023-04-21T09:51:11;99810.97;;;20.10;100.00
19777;BME280;10047;42.490;26.012;2023-04-21T09:53:38;99806.97;;;20.65;100.00
19777;BME280;10047;42.490;26.012;2023-04-21T09:56:06;99714.91;;;19.45;100.00
19777;BME280;10047;42.490;26.012;2023-04-21T09:58:40;99783.88;;;20.75;100.00
19777;BME280;10047;42.490;26.012;2023-04-21T10:01:06;99845.03;;;20.63;100.00
19777;BME280;10047;42.490;26.012;2023-04-21T10:03:34;99847.59;;;20.15;100.00
19777;BME280;10047;42.490;26.012;2023-04-21T10:06:02;99838.66;;;19.57;100.00
19777;BME280;10047;42.490;26.012;2023-04-21T10:08:28;99826.34;;;20.60;100.00
19777;BME280;10047;42.490;26.012;2023-04-21T10:10:54;99815.13;;;21.52;100.00
19777;BME280;10047;42.490;26.012;2023-04-21T10:13:20;99784.34;;;21.94;100.00
19777;BME280;10047;42.490;26.012;2023-04-21T10:15:46;99765.19;;;20.71;100.00
19777;BME280;10047;42.490;26.012;2023-04-21T10:18:19;99742.59;;;20.62;100.00
19777;BME280;10047;42.490;26.012;2023-04-21T10:20:57;99910.50;;;19.76;100.00
19777;BME280;10047;42.490;26.012;2023-04-21T10:26:00;100220.94;;;20.58;100.00
19777;BME280;10047;42.490;26.012;2023-04-21T10:34:14;100771.22;;;21.75;100.00
19777;BME280;10047;42.490;26.012;2023-04-21T10:39:11;100346.53;;;22.14;100.00
19777;BME280;10047;42.490;26.012;2023-04-21T10:41:49;99619.03;;;22.10;100.00
19777;BME280;10047;42.490;26.012;2023-04-21T10:44:15;99688.06;;;22.00;100.00
19777;BME280;10047;42.490;26.012;2023-04-21T10:46:51;99930.28;;;22.15;100.00
19777;BME280;10047;42.490;26.012;2023-04-21T10:49:28;100225.81;;;21.88;100.00
19777;BME280;10047;42.490;26.012;2023-04-21T10:54:21;100310.41;;;21.63;100.00
19777;BME280;10047;42.490;26.012;2023-04-21T10:56:48;99996.84;;;21.21;100.00
19777;BME280;10047;42.490;26.012;2023-04-21T10:59:17;100393.94;;;21.52;100.00
19777;BME280;10047;42.490;26.012;2023-04-21T11:01:45;100606.19;;;21.79;100.00
19777;BME280;10047;42.490;26.012;2023-04-21T11:04:17;100935.38;;;22.02;100.00
19777;BME280;10047;42.490;26.012;2023-04-21T11:07:07;100778.09;;;21.34;100.00
19777;BME280;10047;42.490;26.012;2023-04-21T11:09:34;100321.16;;;21.69;100.00
19777;BME280;10047;42.490;26.012;2023-04-21T11:12:02;100097.97;;;21.29;100.00
19777;BME280;10047;42.490;26.012;2023-04-21T11:14:29;100050.09;;;21.47;100.00
19777;BME280;10047;42.490;26.012;2023-04-21T11:16:55;100034.66;;;21.93;100.00
19777;BME280;10047;42.490;26.012;2023-04-21T11:19:21;99927.03;;;21.32;100.00
19777;BME280;10047;42.490;26.012;2023-04-21T11:21:52;99891.47;;;21.47;100.00
19777;BME280;10047;42.490;26.012;2023-04-21T11:24:19;99874.78;;;21.16;100.00
19777;BME280;10047;42.490;26.012;2023-04-21T11:26:45;99915.16;;;21.06;100.00
19777;BME280;10047;42.490;26.012;2023-04-21T11:29:10;100026.47;;;21.05;100.00
19777;BME280;10047;42.490;26.012;2023-04-21T11:31:38;99977.22;;;20.57;100.00
19777;BME280;10047;42.490;26.012;2023-04-21T11:34:05;100132.66;;;20.89;100.00
19777;BME280;10047;42.490;26.012;2023-04-21T11:36:35;100390.75;;;20.83;100.00
19777;BME280;10047;42.490;26.012;2023-04-21T11:39:09;100466.31;;;20.59;100.00
19777;BME280;10047;42.490;26.012;2023-04-21T11:41:38;100494.28;;;20.09;100.00
19777;BME280;10047;42.490;26.012;2023-04-21T11:44:04;100563.47;;;20.62;100.00
19777;BME280;10047;42.490;26.012;2023-04-21T11:46:29;100475.81;;;20.31;100.00
19777;BME280;10047;42.490;26.012;2023-04-21T11:49:07;100598.34;;;21.39;100.00
19777;BME280;10047;42.490;26.012;2023-04-21T11:51:37;100469.81;;;20.30;100.00
19777;BME280;10047;42.490;26.012;2023-04-21T11:54:12;100441.34;;;19.88;100.00
19777;BME280;10047;42.490;26.012;2023-04-21T11:56:42;100487.81;;;19.88;100.00
19777;BME280;10047;42.490;26.012;2023-04-21T11:59:12;100442.56;;;19.53;100.00
19777;BME280;10047;42.490;26.012;2023-04-21T12:01:56;100514.13;;;19.95;100.00
19777;BME280;10047;42.490;26.012;2023-04-21T12:04:23;100466.94;;;19.63;100.00
19777;BME280;10047;42.490;26.012;2023-04-21T12:06:58;100591.06;;;20.47;100.00
19777;BME280;10047;42.490;26.012;2023-04-21T12:09:24;100606.81;;;21.15;100.00
19777;BME280;10047;42.490;26.012;2023-04-21T12:11:51;100545.81;;;21.25;100.00
19777;BME280;10047;42.490;26.012;2023-04-21T12:14:18;100359.94;;;20.25;100.00
19777;BME280;10047;42.490;26.012;2023-04-21T12:16:48;100379.22;;;20.47;100.00
19777;BME280;10047;42.490;26.012;2023-04-21T12:19:22;100381.81;;;21.01;100.00
19777;BME280;10047;42.490;26.012;2023-04-21T12:21:52;100440.13;;;21.58;100.00
19777;BME280;10047;42.490;26.012;2023-04-21T12:24:18;100359.22;;;21.17;100.00
19777;BME280;10047;42.490;26.012;2023-04-21T12:26:44;100302.84;;;20.29;100.00
19777;BME280;10047;42.490;26.012;2023-04-21T12:29:09;100325.91;;;20.32;100.00
19777;BME280;10047;42.490;26.012;2023-04-21T12:31:34;100334.06;;;19.84;100.00
19777;BME280;10047;42.490;26.012;2023-04-21T12:34:00;100391.16;;;20.22;100.00
19777;BME280;10047;42.490;26.012;2023-04-21T12:36:25;100327.69;;;19.61;100.00
19777;BME280;10047;42.490;26.012;2023-04-21T12:38:52;100356.78;;;19.63;100.00
19777;BME280;10047;42.490;26.012;2023-04-21T12:41:17;100369.59;;;19.51;100.00
19777;BME280;10047;42.490;26.012;2023-04-21T12:43:43;100397.41;;;19.46;100.00
19777;BME280;10047;42.490;26.012;2023-04-21T12:46:08;100490.44;;;19.72;100.00
19777;BME280;10047;42.490;26.012;2023-04-21T12:48:34;100513.53;;;19.60;100.00